sensor_id;sensor_type;location;lat;lon;timestamp;P1;durP1;ratioP1;P2;durP2;ratioP2
29662;SDS011;16578;53.266;7.920;2022-08-04T00:00:24;22.00;;;10.45;;
29662;SDS011;16578;53.266;7.920;2022-08-04T00:02:51;20.58;;;10.68;;
29662;SDS011;16578;53.266;7.920;2022-08-04T00:11:19;24.00;;;10.57;;
29662;SDS011;16578;53.266;7.920;2022-08-04T00:13:54;19.70;;;10.68;;
29662;SDS011;16578;53.266;7.920;2022-08-04T00:16:24;22.02;;;10.93;;
29662;SDS011;16578;53.266;7.920;2022-08-04T00:18:57;18.35;;;10.05;;
29662;SDS011;16578;53.266;7.920;2022-08-04T00:21:30;22.10;;;10.40;;
29662;SDS011;16578;53.266;7.920;2022-08-04T00:24:02;27.42;;;11.50;;
29662;SDS011;16578;53.266;7.920;2022-08-04T00:26:29;17.33;;;10.20;;
29662;SDS011;16578;53.266;7.920;2022-08-04T00:28:55;23.05;;;11.27;;
29662;SDS011;16578;53.266;7.920;2022-08-04T00:31:22;18.33;;;11.65;;
29662;SDS011;16578;53.266;7.920;2022-08-04T00:33:47;21.83;;;11.85;;
29662;SDS011;16578;53.266;7.920;2022-08-04T00:36:14;19.88;;;11.68;;
29662;SDS011;16578;53.266;7.920;2022-08-04T00:38:42;20.38;;;11.63;;
29662;SDS011;16578;53.266;7.920;2022-08-04T00:41:18;21.15;;;12.23;;
29662;SDS011;16578;53.266;7.920;2022-08-04T00:59:52;23.95;;;11.10;;
29662;SDS011;16578;53.266;7.920;2022-08-04T01:02:50;18.08;;;11.13;;
29662;SDS011;16578;53.266;7.920;2022-08-04T01:05:40;18.60;;;10.80;;
29662;SDS011;16578;53.266;7.920;2022-08-04T01:14:14;17.45;;;11.43;;
29662;SDS011;16578;53.266;7.920;2022-08-04T01:16:47;17.73;;;11.30;;
29662;SDS011;16578;53.266;7.920;2022-08-04T01:19:22;29.52;;;12.57;;
29662;SDS011;16578;53.266;7.920;2022-08-04T01:22:17;23.50;;;12.35;;
29662;SDS011;16578;53.266;7.920;2022-08-04T01:24:58;24.33;;;11.93;;
29662;SDS011;16578;53.266;7.920;2022-08-04T01:30:36;18.92;;;12.13;;
29662;SDS011;16578;53.266;7.920;2022-08-04T01:33:07;21.08;;;12.80;;
29662;SDS011;16578;53.266;7.920;2022-08-04T01:35:45;22.67;;;12.40;;
29662;SDS011;16578;53.266;7.920;2022-08-04T01:38:33;23.13;;;12.88;;
29662;SDS011;16578;53.266;7.920;2022-08-04T01:41:06;19.27;;;12.32;;
29662;SDS011;16578;53.266;7.920;2022-08-04T01:43:34;21.48;;;13.13;;
29662;SDS011;16578;53.266;7.920;2022-08-04T01:46:03;25.88;;;13.65;;
29662;SDS011;16578;53.266;7.920;2022-08-04T01:48:29;25.83;;;14.07;;
29662;SDS011;16578;53.266;7.920;2022-08-04T01:50:57;22.02;;;13.88;;
29662;SDS011;16578;53.266;7.920;2022-08-04T01:53:31;18.27;;;13.27;;
29662;SDS011;16578;53.266;7.920;2022-08-04T01:55:59;20.48;;;13.13;;
29662;SDS011;16578;53.266;7.920;2022-08-04T02:00:57;19.30;;;11.60;;
29662;SDS011;16578;53.266;7.920;2022-08-04T02:03:26;20.90;;;12.65;;
29662;SDS011;16578;53.266;7.920;2022-08-04T02:05:55;20.80;;;13.40;;
29662;SDS011;16578;53.266;7.920;2022-08-04T02:11:20;21.47;;;13.13;;
29662;SDS011;16578;53.266;7.920;2022-08-04T02:19:01;16.33;;;12.38;;
29662;SDS011;16578;53.266;7.920;2022-08-04T02:21:44;25.25;;;12.70;;
29662;SDS011;16578;53.266;7.920;2022-08-04T02:24:15;21.55;;;12.52;;
29662;SDS011;16578;53.266;7.920;2022-08-04T02:26:46;19.75;;;13.48;;
29662;SDS011;16578;53.266;7.920;2022-08-04T02:37:16;17.98;;;11.77;;
29662;SDS011;16578;53.266;7.920;2022-08-04T02:39:43;15.48;;;11.82;;
29662;SDS011;16578;53.266;7.920;2022-08-04T02:42:10;19.67;;;12.27;;
29662;SDS011;16578;53.266;7.920;2022-08-04T02:44:37;27.07;;;12.03;;
29662;SDS011;16578;53.266;7.920;2022-08-04T02:47:04;15.50;;;11.25;;
29662;SDS011;16578;53.266;7.920;2022-08-04T02:49:35;21.17;;;11.07;;
29662;SDS011;16578;53.266;7.920;2022-08-04T02:52:02;18.13;;;11.13;;
29662;SDS011;16578;53.266;7.920;2022-08-04T02:54:31;20.73;;;12.50;;
29662;SDS011;16578;53.266;7.920;2022-08-04T02:57:01;13.48;;;10.98;;
29662;SDS011;16578;53.266;7.920;2022-08-04T02:59:36;19.23;;;11.00;;
29662;SDS011;16578;53.266;7.920;2022-08-04T03:02:28;17.63;;;10.90;;
29662;SDS011;16578;53.266;7.920;2022-08-04T03:05:06;19.35;;;11.23;;
29662;SDS011;16578;53.266;7.920;2022-08-04T03:16:20;14.75;;;10.23;;
29662;SDS011;16578;53.266;7.920;2022-08-04T03:30:14;16.25;;;11.95;;
29662;SDS011;16578;53.266;7.920;2022-08-04T03:54:42;22.50;;;14.43;;
29662;SDS011;16578;53.266;7.920;2022-08-04T04:00:07;24.33;;;12.75;;
29662;SDS011;16578;53.266;7.920;2022-08-04T04:05:26;26.25;;;13.77;;
29662;SDS011;16578;53.266;7.920;2022-08-04T04:10:39;22.60;;;12.23;;
29662;SDS011;16578;53.266;7.920;2022-08-04T04:27:26;21.33;;;11.50;;
29662;SDS011;16578;53.266;7.920;2022-08-04T04:35:43;15.90;;;10.55;;
29662;SDS011;16578;53.266;7.920;2022-08-04T04:43:55;14.35;;;10.60;;
29662;SDS011;16578;53.266;7.920;2022-08-04T05:00:02;12.18;;;7.88;;
29662;SDS011;16578;53.266;7.920;2022-08-04T05:08:31;18.35;;;8.15;;
29662;SDS011;16578;53.266;7.920;2022-08-04T05:14:03;13.23;;;7.10;;
29662;SDS011;16578;53.266;7.920;2022-08-04T05:16:35;12.27;;;7.40;;
29662;SDS011;16578;53.266;7.920;2022-08-04T05:22:24;16.10;;;7.47;;
29662;SDS011;16578;53.266;7.920;2022-08-04T05:24:25;15.43;;;7.28;;
29662;SDS011;16578;53.266;7.920;2022-08-04T05:26:54;12.33;;;6.57;;
29662;SDS011;16578;53.266;7.920;2022-08-04T05:29:27;11.82;;;7.20;;
29662;SDS011;16578;53.266;7.920;2022-08-04T05:32:06;13.00;;;5.97;;
29662;SDS011;16578;53.266;7.920;2022-08-04T05:34:41;11.27;;;6.47;;
29662;SDS011;16578;53.266;7.920;2022-08-04T05:37:14;12.63;;;6.43;;
29662;SDS011;16578;53.266;7.920;2022-08-04T05:39:43;12.32;;;5.97;;
29662;SDS011;16578;53.266;7.920;2022-08-04T05:42:30;12.40;;;6.10;;
29662;SDS011;16578;53.266;7.920;2022-08-04T05:45:07;11.00;;;5.70;;
29662;SDS011;16578;53.266;7.920;2022-08-04T05:48:14;11.10;;;5.82;;
29662;SDS011;16578;53.266;7.920;2022-08-04T05:50:40;11.20;;;5.45;;
29662;SDS011;16578;53.266;7.920;2022-08-04T05:53:06;15.52;;;6.35;;
29662;SDS011;16578;53.266;7.920;2022-08-04T05:55:34;9.98;;;5.22;;
29662;SDS011;16578;53.266;7.920;2022-08-04T05:58:00;12.52;;;5.45;;
29662;SDS011;16578;53.266;7.920;2022-08-04T06:00:30;13.25;;;5.50;;
29662;SDS011;16578;53.266;7.920;2022-08-04T06:02:59;12.82;;;5.55;;
29662;SDS011;16578;53.266;7.920;2022-08-04T06:05:26;13.05;;;5.32;;
29662;SDS011;16578;53.266;7.920;2022-08-04T06:07:53;13.20;;;5.28;;
29662;SDS011;16578;53.266;7.920;2022-08-04T06:10:18;8.63;;;5.07;;
29662;SDS011;16578;53.266;7.920;2022-08-04T06:15:17;9.52;;;4.53;;
29662;SDS011;16578;53.266;7.920;2022-08-04T06:17:49;8.25;;;4.68;;
29662;SDS011;16578;53.266;7.920;2022-08-04T06:20:19;10.55;;;4.82;;
29662;SDS011;16578;53.266;7.920;2022-08-04T06:22:55;11.98;;;5.05;;
29662;SDS011;16578;53.266;7.920;2022-08-04T06:25:24;14.35;;;5.40;;
29662;SDS011;16578;53.266;7.920;2022-08-04T06:27:53;10.43;;;4.47;;
29662;SDS011;16578;53.266;7.920;2022-08-04T06:30:20;9.32;;;4.43;;
29662;SDS011;16578;53.266;7.920;2022-08-04T06:32:50;8.90;;;4.60;;
29662;SDS011;16578;53.266;7.920;2022-08-04T06:35:20;12.75;;;4.85;;
29662;SDS011;16578;53.266;7.920;2022-08-04T06:37:47;16.10;;;5.07;;
29662;SDS011;16578;53.266;7.920;2022-08-04T06:40:14;9.88;;;4.03;;
29662;SDS011;16578;53.266;7.920;2022-08-04T06:42:41;10.57;;;4.43;;
29662;SDS011;16578;53.266;7.920;2022-08-04T06:45:09;11.13;;;4.40;;
29662;SDS011;16578;53.266;7.920;2022-08-04T06:47:36;15.77;;;4.80;;
29662;SDS011;16578;53.266;7.920;2022-08-04T06:50:05;8.93;;;4.38;;
29662;SDS011;16578;53.266;7.920;2022-08-04T06:52:32;12.05;;;4.80;;
29662;SDS011;16578;53.266;7.920;2022-08-04T06:54:58;9.23;;;4.78;;
29662;SDS011;16578;53.266;7.920;2022-08-04T06:57:26;8.18;;;3.83;;
29662;SDS011;16578;53.266;7.920;2022-08-04T06:59:57;7.30;;;3.95;;
29662;SDS011;16578;53.266;7.920;2022-08-04T07:02:30;7.25;;;3.70;;
29662;SDS011;16578;53.266;7.920;2022-08-04T07:05:01;9.05;;;3.67;;
29662;SDS011;16578;53.266;7.920;2022-08-04T07:07:26;10.63;;;4.30;;
29662;SDS011;16578;53.266;7.920;2022-08-04T07:09:52;11.13;;;4.63;;
29662;SDS011;16578;53.266;7.920;2022-08-04T07:12:18;11.57;;;4.13;;
29662;SDS011;16578;53.266;7.920;2022-08-04T07:14:45;10.93;;;3.90;;
29662;SDS011;16578;53.266;7.920;2022-08-04T07:17:14;9.02;;;3.80;;
29662;SDS011;16578;53.266;7.920;2022-08-04T07:19:40;8.35;;;3.70;;
29662;SDS011;16578;53.266;7.920;2022-08-04T07:22:08;11.53;;;4.60;;
29662;SDS011;16578;53.266;7.920;2022-08-04T07:24:35;9.23;;;4.28;;
29662;SDS011;16578;53.266;7.920;2022-08-04T07:27:02;12.40;;;4.00;;
29662;SDS011;16578;53.266;7.920;2022-08-04T07:29:28;8.88;;;3.53;;
29662;SDS011;16578;53.266;7.920;2022-08-04T07:31:55;12.15;;;4.03;;
29662;SDS011;16578;53.266;7.920;2022-08-04T07:34:22;8.35;;;3.40;;
29662;SDS011;16578;53.266;7.920;2022-08-04T07:36:51;10.90;;;4.07;;
29662;SDS011;16578;53.266;7.920;2022-08-04T07:39:17;7.67;;;3.83;;
29662;SDS011;16578;53.266;7.920;2022-08-04T07:41:43;9.27;;;3.85;;
29662;SDS011;16578;53.266;7.920;2022-08-04T07:44:09;8.80;;;3.78;;
29662;SDS011;16578;53.266;7.920;2022-08-04T07:46:38;7.80;;;3.60;;
29662;SDS011;16578;53.266;7.920;2022-08-04T07:49:04;8.15;;;3.70;;
29662;SDS011;16578;53.266;7.920;2022-08-04T07:51:30;8.82;;;3.88;;
29662;SDS011;16578;53.266;7.920;2022-08-04T07:58:53;6.25;;;2.97;;
29662;SDS011;16578;53.266;7.920;2022-08-04T08:01:19;5.88;;;2.65;;
29662;SDS011;16578;53.266;7.920;2022-08-04T08:03:45;6.93;;;3.13;;
29662;SDS011;16578;53.266;7.920;2022-08-04T08:06:12;8.00;;;3.25;;
29662;SDS011;16578;53.266;7.920;2022-08-04T08:08:38;7.57;;;3.05;;
29662;SDS011;16578;53.266;7.920;2022-08-04T08:11:04;6.70;;;3.15;;
29662;SDS011;16578;53.266;7.920;2022-08-04T08:13:35;5.38;;;2.80;;
29662;SDS011;16578;53.266;7.920;2022-08-04T08:16:01;6.72;;;3.10;;
29662;SDS011;16578;53.266;7.920;2022-08-04T08:18:28;8.23;;;3.03;;
29662;SDS011;16578;53.266;7.920;2022-08-04T08:20:54;7.20;;;3.30;;
29662;SDS011;16578;53.266;7.920;2022-08-04T08:23:20;6.65;;;2.83;;
29662;SDS011;16578;53.266;7.920;2022-08-04T08:25:47;7.78;;;3.40;;
29662;SDS011;16578;53.266;7.920;2022-08-04T08:28:13;8.40;;;3.15;;
29662;SDS011;16578;53.266;7.920;2022-08-04T08:30:40;4.35;;;2.80;;
29662;SDS011;16578;53.266;7.920;2022-08-04T08:33:06;5.60;;;2.95;;
29662;SDS011;16578;53.266;7.920;2022-08-04T08:35:45;5.95;;;2.90;;
29662;SDS011;16578;53.266;7.920;2022-08-04T08:38:16;8.05;;;3.17;;
29662;SDS011;16578;53.266;7.920;2022-08-04T08:40:55;9.82;;;3.20;;
29662;SDS011;16578;53.266;7.920;2022-08-04T08:51:39;6.97;;;2.50;;
29662;SDS011;16578;53.266;7.920;2022-08-04T08:54:18;6.43;;;2.63;;
29662;SDS011;16578;53.266;7.920;2022-08-04T09:00:08;7.05;;;2.40;;
29662;SDS011;16578;53.266;7.920;2022-08-04T09:11:47;6.63;;;2.60;;
29662;SDS011;16578;53.266;7.920;2022-08-04T09:14:28;3.42;;;2.17;;
29662;SDS011;16578;53.266;7.920;2022-08-04T09:17:01;5.50;;;2.58;;
29662;SDS011;16578;53.266;7.920;2022-08-04T09:19:50;5.53;;;2.30;;
29662;SDS011;16578;53.266;7.920;2022-08-04T09:22:24;6.40;;;2.50;;
29662;SDS011;16578;53.266;7.920;2022-08-04T09:25:23;5.05;;;2.47;;
29662;SDS011;16578;53.266;7.920;2022-08-04T09:27:55;3.10;;;2.00;;
29662;SDS011;16578;53.266;7.920;2022-08-04T09:30:31;5.97;;;2.42;;
29662;SDS011;16578;53.266;7.920;2022-08-04T09:36:06;2.80;;;1.90;;
29662;SDS011;16578;53.266;7.920;2022-08-04T09:44:10;4.70;;;2.50;;
29662;SDS011;16578;53.266;7.920;2022-08-04T09:46:46;3.90;;;2.63;;
29662;SDS011;16578;53.266;7.920;2022-08-04T09:49:39;4.45;;;2.28;;
29662;SDS011;16578;53.266;7.920;2022-08-04T09:52:27;5.43;;;2.55;;
29662;SDS011;16578;53.266;7.920;2022-08-04T09:55:08;6.43;;;2.78;;
29662;SDS011;16578;53.266;7.920;2022-08-04T09:58:01;4.60;;;2.60;;
29662;SDS011;16578;53.266;7.920;2022-08-04T10:00:40;5.90;;;2.72;;
29662;SDS011;16578;53.266;7.920;2022-08-04T10:03:11;6.80;;;2.85;;
29662;SDS011;16578;53.266;7.920;2022-08-04T10:11:23;7.57;;;3.00;;
29662;SDS011;16578;53.266;7.920;2022-08-04T10:19:49;4.60;;;2.78;;
29662;SDS011;16578;53.266;7.920;2022-08-04T10:22:27;7.30;;;2.92;;
29662;SDS011;16578;53.266;7.920;2022-08-04T10:27:58;7.85;;;2.72;;
29662;SDS011;16578;53.266;7.920;2022-08-04T10:30:29;10.30;;;3.22;;
29662;SDS011;16578;53.266;7.920;2022-08-04T10:35:45;5.13;;;2.95;;
29662;SDS011;16578;53.266;7.920;2022-08-04T10:38:15;3.95;;;2.63;;
29662;SDS011;16578;53.266;7.920;2022-08-04T10:40:48;6.93;;;3.17;;
29662;SDS011;16578;53.266;7.920;2022-08-04T10:46:31;6.50;;;2.78;;
29662;SDS011;16578;53.266;7.920;2022-08-04T10:49:03;5.25;;;2.63;;
29662;SDS011;16578;53.266;7.920;2022-08-04T10:54:20;5.35;;;2.92;;
29662;SDS011;16578;53.266;7.920;2022-08-04T10:57:12;8.93;;;3.60;;
29662;SDS011;16578;53.266;7.920;2022-08-04T10:59:44;7.47;;;3.30;;
29662;SDS011;16578;53.266;7.920;2022-08-04T11:05:03;8.90;;;4.43;;
29662;SDS011;16578;53.266;7.920;2022-08-04T11:07:43;6.80;;;4.07;;
29662;SDS011;16578;53.266;7.920;2022-08-04T11:10:11;10.40;;;5.10;;
29662;SDS011;16578;53.266;7.920;2022-08-04T11:12:38;13.82;;;4.88;;
29662;SDS011;16578;53.266;7.920;2022-08-04T11:15:17;16.42;;;5.10;;
29662;SDS011;16578;53.266;7.920;2022-08-04T11:17:52;11.32;;;4.80;;
29662;SDS011;16578;53.266;7.920;2022-08-04T11:20:47;8.57;;;3.88;;
29662;SDS011;16578;53.266;7.920;2022-08-04T11:23:22;8.95;;;3.85;;
29662;SDS011;16578;53.266;7.920;2022-08-04T11:25:58;6.18;;;3.40;;
29662;SDS011;16578;53.266;7.920;2022-08-04T11:28:48;9.13;;;3.90;;
29662;SDS011;16578;53.266;7.920;2022-08-04T11:31:20;6.90;;;4.00;;
29662;SDS011;16578;53.266;7.920;2022-08-04T11:34:02;6.85;;;3.30;;
29662;SDS011;16578;53.266;7.920;2022-08-04T11:36:45;8.98;;;3.80;;
29662;SDS011;16578;53.266;7.920;2022-08-04T11:39:34;6.85;;;3.05;;
29662;SDS011;16578;53.266;7.920;2022-08-04T11:42:05;5.80;;;3.38;;
29662;SDS011;16578;53.266;7.920;2022-08-04T11:47:19;5.15;;;3.10;;
29662;SDS011;16578;53.266;7.920;2022-08-04T11:52:29;6.88;;;2.88;;
29662;SDS011;16578;53.266;7.920;2022-08-04T11:54:57;6.18;;;2.80;;
29662;SDS011;16578;53.266;7.920;2022-08-04T11:57:26;4.65;;;2.45;;
29662;SDS011;16578;53.266;7.920;2022-08-04T11:59:54;5.25;;;2.80;;
29662;SDS011;16578;53.266;7.920;2022-08-04T12:05:05;4.93;;;2.97;;
29662;SDS011;16578;53.266;7.920;2022-08-04T12:10:17;4.25;;;2.67;;
29662;SDS011;16578;53.266;7.920;2022-08-04T12:18:36;4.40;;;2.58;;
29662;SDS011;16578;53.266;7.920;2022-08-04T12:21:08;4.57;;;2.58;;
29662;SDS011;16578;53.266;7.920;2022-08-04T12:23:42;3.70;;;2.42;;
29662;SDS011;16578;53.266;7.920;2022-08-04T12:26:13;3.80;;;2.40;;
29662;SDS011;16578;53.266;7.920;2022-08-04T12:28:45;5.60;;;2.53;;
29662;SDS011;16578;53.266;7.920;2022-08-04T12:31:19;3.60;;;2.05;;
29662;SDS011;16578;53.266;7.920;2022-08-04T12:34:07;4.35;;;2.13;;
29662;SDS011;16578;53.266;7.920;2022-08-04T12:39:41;5.13;;;2.50;;
29662;SDS011;16578;53.266;7.920;2022-08-04T12:42:12;7.25;;;2.50;;
29662;SDS011;16578;53.266;7.920;2022-08-04T12:44:43;3.42;;;2.28;;
29662;SDS011;16578;53.266;7.920;2022-08-04T12:47:14;6.10;;;2.42;;
29662;SDS011;16578;53.266;7.920;2022-08-04T12:49:41;5.13;;;2.60;;
29662;SDS011;16578;53.266;7.920;2022-08-04T12:52:09;4.13;;;2.40;;
29662;SDS011;16578;53.266;7.920;2022-08-04T12:54:38;4.55;;;2.40;;
29662;SDS011;16578;53.266;7.920;2022-08-04T12:57:07;3.05;;;2.17;;
29662;SDS011;16578;53.266;7.920;2022-08-04T12:59:38;5.03;;;2.70;;
29662;SDS011;16578;53.266;7.920;2022-08-04T13:02:10;6.30;;;2.53;;
29662;SDS011;16578;53.266;7.920;2022-08-04T13:04:41;5.90;;;2.50;;
29662;SDS011;16578;53.266;7.920;2022-08-04T13:07:14;7.72;;;3.42;;
29662;SDS011;16578;53.266;7.920;2022-08-04T13:09:43;6.35;;;2.90;;
29662;SDS011;16578;53.266;7.920;2022-08-04T13:12:14;7.38;;;3.63;;
29662;SDS011;16578;53.266;7.920;2022-08-04T13:14:42;5.63;;;3.13;;
29662;SDS011;16578;53.266;7.920;2022-08-04T13:17:12;5.47;;;2.88;;
29662;SDS011;16578;53.266;7.920;2022-08-04T13:19:38;4.85;;;2.85;;
29662;SDS011;16578;53.266;7.920;2022-08-04T13:22:10;7.78;;;3.25;;
29662;SDS011;16578;53.266;7.920;2022-08-04T13:24:36;11.55;;;3.53;;
29662;SDS011;16578;53.266;7.920;2022-08-04T13:27:05;6.18;;;3.17;;
29662;SDS011;16578;53.266;7.920;2022-08-04T13:29:39;10.18;;;3.00;;
29662;SDS011;16578;53.266;7.920;2022-08-04T13:32:07;6.97;;;3.15;;
29662;SDS011;16578;53.266;7.920;2022-08-04T13:34:34;5.70;;;2.78;;
29662;SDS011;16578;53.266;7.920;2022-08-04T13:37:01;9.63;;;2.70;;
29662;SDS011;16578;53.266;7.920;2022-08-04T13:39:28;5.50;;;2.42;;
29662;SDS011;16578;53.266;7.920;2022-08-04T13:41:55;4.75;;;2.42;;
29662;SDS011;16578;53.266;7.920;2022-08-04T13:44:28;8.52;;;2.50;;
29662;SDS011;16578;53.266;7.920;2022-08-04T13:46:57;8.60;;;2.38;;
29662;SDS011;16578;53.266;7.920;2022-08-04T13:49:27;3.28;;;2.17;;
29662;SDS011;16578;53.266;7.920;2022-08-04T13:51:59;3.83;;;1.92;;
29662;SDS011;16578;53.266;7.920;2022-08-04T13:54:38;2.58;;;1.95;;
29662;SDS011;16578;53.266;7.920;2022-08-04T13:57:16;3.28;;;1.80;;
29662;SDS011;16578;53.266;7.920;2022-08-04T14:00:06;4.50;;;1.73;;
29662;SDS011;16578;53.266;7.920;2022-08-04T14:02:44;2.10;;;1.45;;
29662;SDS011;16578;53.266;7.920;2022-08-04T14:05:23;5.35;;;1.35;;
29662;SDS011;16578;53.266;7.920;2022-08-04T14:07:54;2.13;;;1.10;;
29662;SDS011;16578;53.266;7.920;2022-08-04T14:10:33;2.28;;;1.23;;
29662;SDS011;16578;53.266;7.920;2022-08-04T14:12:59;3.75;;;1.35;;
29662;SDS011;16578;53.266;7.920;2022-08-04T14:15:46;1.45;;;1.35;;
29662;SDS011;16578;53.266;7.920;2022-08-04T14:18:18;7.88;;;1.67;;
29662;SDS011;16578;53.266;7.920;2022-08-04T14:23:25;5.38;;;1.50;;
29662;SDS011;16578;53.266;7.920;2022-08-04T14:25:51;2.08;;;1.42;;
29662;SDS011;16578;53.266;7.920;2022-08-04T14:28:30;2.40;;;1.50;;
29662;SDS011;16578;53.266;7.920;2022-08-04T14:33:39;4.28;;;1.60;;
29662;SDS011;16578;53.266;7.920;2022-08-04T14:36:06;3.10;;;1.42;;
29662;SDS011;16578;53.266;7.920;2022-08-04T14:41:26;4.40;;;1.50;;
29662;SDS011;16578;53.266;7.920;2022-08-04T14:44:07;2.97;;;1.48;;
29662;SDS011;16578;53.266;7.920;2022-08-04T14:46:33;2.78;;;1.83;;
29662;SDS011;16578;53.266;7.920;2022-08-04T14:49:12;3.35;;;1.90;;
29662;SDS011;16578;53.266;7.920;2022-08-04T14:51:41;2.40;;;1.27;;
29662;SDS011;16578;53.266;7.920;2022-08-04T14:54:09;3.72;;;1.90;;
29662;SDS011;16578;53.266;7.920;2022-08-04T14:56:38;2.85;;;1.63;;
29662;SDS011;16578;53.266;7.920;2022-08-04T14:59:07;3.67;;;1.75;;
29662;SDS011;16578;53.266;7.920;2022-08-04T15:01:35;3.90;;;1.60;;
29662;SDS011;16578;53.266;7.920;2022-08-04T15:04:03;2.80;;;1.60;;
29662;SDS011;16578;53.266;7.920;2022-08-04T15:06:35;2.60;;;1.52;;
29662;SDS011;16578;53.266;7.920;2022-08-04T15:09:03;2.40;;;1.73;;
29662;SDS011;16578;53.266;7.920;2022-08-04T15:11:34;5.65;;;2.60;;
29662;SDS011;16578;53.266;7.920;2022-08-04T15:14:01;4.18;;;2.70;;
29662;SDS011;16578;53.266;7.920;2022-08-04T15:16:28;5.53;;;3.60;;
29662;SDS011;16578;53.266;7.920;2022-08-04T15:18:56;7.40;;;3.22;;
29662;SDS011;16578;53.266;7.920;2022-08-04T15:21:23;6.72;;;3.30;;
29662;SDS011;16578;53.266;7.920;2022-08-04T15:23:52;5.30;;;2.80;;
29662;SDS011;16578;53.266;7.920;2022-08-04T15:26:21;4.00;;;2.40;;
29662;SDS011;16578;53.266;7.920;2022-08-04T15:31:39;5.25;;;2.30;;
29662;SDS011;16578;53.266;7.920;2022-08-04T15:34:07;4.93;;;2.22;;
29662;SDS011;16578;53.266;7.920;2022-08-04T15:45:05;2.28;;;1.60;;
29662;SDS011;16578;53.266;7.920;2022-08-04T15:48:16;1.77;;;1.40;;
29662;SDS011;16578;53.266;7.920;2022-08-04T15:50:41;2.70;;;1.23;;
29662;SDS011;16578;53.266;7.920;2022-08-04T15:54:19;3.75;;;1.60;;
29662;SDS011;16578;53.266;7.920;2022-08-04T15:59:07;2.42;;;1.27;;
29662;SDS011;16578;53.266;7.920;2022-08-04T16:01:32;2.17;;;1.23;;
29662;SDS011;16578;53.266;7.920;2022-08-04T16:04:20;2.22;;;1.27;;
29662;SDS011;16578;53.266;7.920;2022-08-04T16:06:48;5.28;;;1.65;;
29662;SDS011;16578;53.266;7.920;2022-08-04T16:09:23;2.35;;;1.48;;
29662;SDS011;16578;53.266;7.920;2022-08-04T16:11:50;2.00;;;1.25;;
29662;SDS011;16578;53.266;7.920;2022-08-04T16:14:16;3.35;;;1.38;;
29662;SDS011;16578;53.266;7.920;2022-08-04T16:16:53;2.67;;;1.42;;
29662;SDS011;16578;53.266;7.920;2022-08-04T16:19:22;4.22;;;1.60;;
29662;SDS011;16578;53.266;7.920;2022-08-04T16:21:56;3.33;;;1.30;;
29662;SDS011;16578;53.266;7.920;2022-08-04T16:24:35;4.15;;;1.13;;
29662;SDS011;16578;53.266;7.920;2022-08-04T16:29:37;2.03;;;1.00;;
29662;SDS011;16578;53.266;7.920;2022-08-04T16:32:07;3.38;;;1.33;;
29662;SDS011;16578;53.266;7.920;2022-08-04T16:34:37;2.33;;;1.30;;
29662;SDS011;16578;53.266;7.920;2022-08-04T16:37:06;6.28;;;1.50;;
29662;SDS011;16578;53.266;7.920;2022-08-04T16:39:41;4.18;;;1.67;;
29662;SDS011;16578;53.266;7.920;2022-08-04T16:50:16;2.83;;;1.45;;
29662;SDS011;16578;53.266;7.920;2022-08-04T16:52:47;2.35;;;0.90;;
29662;SDS011;16578;53.266;7.920;2022-08-04T16:55:15;2.17;;;0.88;;
29662;SDS011;16578;53.266;7.920;2022-08-04T16:57:54;4.00;;;1.40;;
29662;SDS011;16578;53.266;7.920;2022-08-04T17:00:31;2.25;;;1.20;;
29662;SDS011;16578;53.266;7.920;2022-08-04T17:03:04;2.92;;;1.20;;
29662;SDS011;16578;53.266;7.920;2022-08-04T17:05:36;5.40;;;1.58;;
29662;SDS011;16578;53.266;7.920;2022-08-04T17:08:03;3.47;;;1.30;;
29662;SDS011;16578;53.266;7.920;2022-08-04T17:10:39;6.60;;;1.70;;
29662;SDS011;16578;53.266;7.920;2022-08-04T17:18:57;5.10;;;1.80;;
29662;SDS011;16578;53.266;7.920;2022-08-04T17:21:30;4.40;;;1.73;;
29662;SDS011;16578;53.266;7.920;2022-08-04T17:24:03;4.47;;;2.22;;
29662;SDS011;16578;53.266;7.920;2022-08-04T17:26:30;5.07;;;2.10;;
29662;SDS011;16578;53.266;7.920;2022-08-04T17:29:00;6.05;;;2.03;;
29662;SDS011;16578;53.266;7.920;2022-08-04T17:31:28;6.18;;;2.03;;
29662;SDS011;16578;53.266;7.920;2022-08-04T17:33:57;7.28;;;2.28;;
29662;SDS011;16578;53.266;7.920;2022-08-04T17:36:30;4.32;;;1.92;;
29662;SDS011;16578;53.266;7.920;2022-08-04T17:39:09;6.05;;;2.10;;
29662;SDS011;16578;53.266;7.920;2022-08-04T17:48:27;6.70;;;2.35;;
29662;SDS011;16578;53.266;7.920;2022-08-04T17:51:14;6.85;;;2.50;;
29662;SDS011;16578;53.266;7.920;2022-08-04T17:53:40;4.68;;;2.35;;
29662;SDS011;16578;53.266;7.920;2022-08-04T17:56:52;5.50;;;2.50;;
29662;SDS011;16578;53.266;7.920;2022-08-04T18:09:03;10.18;;;3.10;;
29662;SDS011;16578;53.266;7.920;2022-08-04T18:11:41;8.32;;;3.35;;
29662;SDS011;16578;53.266;7.920;2022-08-04T18:17:12;5.82;;;2.20;;
29662;SDS011;16578;53.266;7.920;2022-08-04T18:19:53;5.20;;;2.67;;
29662;SDS011;16578;53.266;7.920;2022-08-04T18:23:04;7.40;;;3.60;;
29662;SDS011;16578;53.266;7.920;2022-08-04T18:25:22;6.97;;;3.05;;
29662;SDS011;16578;53.266;7.920;2022-08-04T18:27:53;3.40;;;2.35;;
29662;SDS011;16578;53.266;7.920;2022-08-04T18:30:35;5.82;;;2.72;;
29662;SDS011;16578;53.266;7.920;2022-08-04T18:33:01;4.03;;;2.53;;
29662;SDS011;16578;53.266;7.920;2022-08-04T18:35:36;5.13;;;2.47;;
29662;SDS011;16578;53.266;7.920;2022-08-04T18:38:02;4.00;;;2.50;;
29662;SDS011;16578;53.266;7.920;2022-08-04T18:40:28;5.93;;;2.50;;
29662;SDS011;16578;53.266;7.920;2022-08-04T18:42:54;4.88;;;2.55;;
29662;SDS011;16578;53.266;7.920;2022-08-04T18:45:19;6.15;;;2.50;;
29662;SDS011;16578;53.266;7.920;2022-08-04T18:47:45;5.93;;;2.70;;
29662;SDS011;16578;53.266;7.920;2022-08-04T18:50:11;3.42;;;2.00;;
29662;SDS011;16578;53.266;7.920;2022-08-04T18:52:37;4.28;;;2.17;;
29662;SDS011;16578;53.266;7.920;2022-08-04T18:55:03;2.95;;;2.35;;
29662;SDS011;16578;53.266;7.920;2022-08-04T18:57:29;5.70;;;3.15;;
29662;SDS011;16578;53.266;7.920;2022-08-04T18:59:55;7.05;;;3.00;;
29662;SDS011;16578;53.266;7.920;2022-08-04T19:02:21;4.43;;;2.88;;
29662;SDS011;16578;53.266;7.920;2022-08-04T19:04:47;6.15;;;3.22;;
29662;SDS011;16578;53.266;7.920;2022-08-04T19:07:14;5.65;;;3.40;;
29662;SDS011;16578;53.266;7.920;2022-08-04T19:09:40;4.03;;;3.03;;
29662;SDS011;16578;53.266;7.920;2022-08-04T19:12:07;4.60;;;2.75;;
29662;SDS011;16578;53.266;7.920;2022-08-04T19:14:32;6.18;;;3.65;;
29662;SDS011;16578;53.266;7.920;2022-08-04T19:16:58;5.30;;;3.42;;
29662;SDS011;16578;53.266;7.920;2022-08-04T19:19:24;6.47;;;3.38;;
29662;SDS011;16578;53.266;7.920;2022-08-04T19:21:49;4.60;;;2.88;;
29662;SDS011;16578;53.266;7.920;2022-08-04T19:24:15;4.53;;;3.30;;
29662;SDS011;16578;53.266;7.920;2022-08-04T19:26:41;7.10;;;4.00;;
29662;SDS011;16578;53.266;7.920;2022-08-04T19:29:06;4.88;;;3.72;;
29662;SDS011;16578;53.266;7.920;2022-08-04T19:31:32;6.60;;;3.97;;
29662;SDS011;16578;53.266;7.920;2022-08-04T19:33:58;5.63;;;3.67;;
29662;SDS011;16578;53.266;7.920;2022-08-04T19:36:24;6.22;;;3.70;;
29662;SDS011;16578;53.266;7.920;2022-08-04T19:38:52;7.13;;;4.25;;
29662;SDS011;16578;53.266;7.920;2022-08-04T19:41:18;7.47;;;4.22;;
29662;SDS011;16578;53.266;7.920;2022-08-04T19:43:44;6.55;;;3.35;;
29662;SDS011;16578;53.266;7.920;2022-08-04T19:46:11;5.38;;;3.67;;
29662;SDS011;16578;53.266;7.920;2022-08-04T19:48:37;5.72;;;3.70;;
29662;SDS011;16578;53.266;7.920;2022-08-04T19:51:03;6.45;;;3.85;;
29662;SDS011;16578;53.266;7.920;2022-08-04T19:53:29;5.78;;;3.92;;
29662;SDS011;16578;53.266;7.920;2022-08-04T19:55:54;6.85;;;3.50;;
29662;SDS011;16578;53.266;7.920;2022-08-04T19:58:20;6.35;;;3.50;;